Time,TemperatureF,DewpointF,PressureIn,WindDirection,WindDirectionDegrees,WindSpeedMPH,WindSpeedGustMPH,Humidity,HourlyPrecipIn,Conditions,Clouds,dailyrainin,SolarRadiationWatts/m^2,SoftwareType,DateUTC
2013-06-23 00:01:00,72.0,69.0,30.43,South,175,2.0,6.0,91,0.00,,,0.00,0.000000,,2013-06-23 04:01:00,
2013-06-23 00:11:00,72.0,69.0,30.43,South,175,2.0,6.0,91,0.00,,,0.00,0.000000,,2013-06-23 04:11:00,
2013-06-23 00:42:00,71.0,70.0,30.44,NE,54,4.0,6.0,98,0.00,,,0.00,0.000000,,2013-06-23 04:42:00,
2013-06-23 00:52:00,71.0,70.0,30.44,NE,54,4.0,6.0,98,0.00,,,0.00,0.000000,,2013-06-23 04:52:00,
2013-06-23 01:01:00,71.0,70.0,30.44,NE,54,4.0,6.0,98,0.00,,,0.00,0.000000,,2013-06-23 05:01:00,
2013-06-23 01:11:00,71.0,70.0,30.44,NE,54,4.0,6.0,98,0.00,,,0.00,0.000000,,2013-06-23 05:11:00,
2013-06-23 01:42:00,68.0,68.0,30.43,ESE,102,2.0,4.0,99,0.00,,,0.00,0.000000,,2013-06-23 05:42:00,
2013-06-23 01:52:00,68.0,68.0,30.43,ESE,102,2.0,4.0,99,0.00,,,0.00,0.000000,,2013-06-23 05:52:00,
2013-06-23 02:02:00,68.0,68.0,30.43,ESE,102,2.0,4.0,99,0.00,,,0.00,0.000000,,2013-06-23 06:02:00,
2013-06-23 02:12:00,68.0,68.0,30.43,ESE,102,2.0,4.0,99,0.00,,,0.00,0.000000,,2013-06-23 06:12:00,
2013-06-23 02:43:00,69.0,69.0,30.41,ENE,57,4.0,6.0,99,0.00,,,0.00,0.000000,,2013-06-23 06:43:00,
2013-06-23 02:52:00,69.0,69.0,30.41,ENE,57,4.0,6.0,99,0.00,,,0.00,0.000000,,2013-06-23 06:52:00,
2013-06-23 03:02:00,69.0,69.0,30.41,ENE,57,4.0,6.0,99,0.00,,,0.00,0.000000,,2013-06-23 07:02:00,
2013-06-23 03:12:00,69.0,69.0,30.41,ENE,57,4.0,6.0,99,0.00,,,0.00,0.000000,,2013-06-23 07:12:00,
2013-06-23 03:43:00,69.0,69.0,30.42,NNE,30,1.0,5.0,99,0.00,,,0.00,0.000000,,2013-06-23 07:43:00,
2013-06-23 03:53:00,69.0,69.0,30.42,NNE,30,1.0,5.0,99,0.00,,,0.00,0.000000,,2013-06-23 07:53:00,
2013-06-23 04:02:00,69.0,69.0,30.42,NNE,30,1.0,5.0,99,0.00,,,0.00,0.000000,,2013-06-23 08:02:00,
2013-06-23 04:12:00,69.0,69.0,30.42,NNE,30,1.0,5.0,99,0.00,,,0.00,0.000000,,2013-06-23 08:12:00,
2013-06-23 04:43:00,69.0,69.0,30.41,NE,53,3.0,5.0,99,0.00,,,0.00,0.000000,,2013-06-23 08:43:00,
2013-06-23 04:53:00,69.0,69.0,30.41,NE,53,3.0,5.0,99,0.00,,,0.00,0.000000,,2013-06-23 08:53:00,
2013-06-23 05:02:00,69.0,69.0,30.41,NE,53,3.0,5.0,99,0.00,,,0.00,0.000000,,2013-06-23 09:02:00,
2013-06-23 05:12:00,69.0,69.0,30.41,NE,53,3.0,5.0,99,0.00,,,0.00,0.000000,,2013-06-23 09:12:00,
2013-06-23 05:43:00,67.0,67.0,30.42,ENE,61,3.0,5.0,99,0.00,,,0.00,0.000000,,2013-06-23 09:43:00,
2013-06-23 05:54:00,67.0,67.0,30.42,ENE,61,3.0,5.0,99,0.00,,,0.00,0.000000,,2013-06-23 09:54:00,
2013-06-23 06:02:00,67.0,67.0,30.42,ENE,61,3.0,5.0,99,0.00,,,0.00,0.000000,,2013-06-23 10:02:00,
2013-06-23 06:11:00,67.0,67.0,30.42,ENE,61,3.0,5.0,99,0.00,,,0.00,0.000000,,2013-06-23 10:11:00,
2013-06-23 06:43:00,68.0,68.0,30.43,NNE,28,3.0,5.0,99,0.00,,,-99.99,0.000000,,2013-06-23 10:43:00,
2013-06-23 06:53:00,68.0,68.0,30.43,NNE,28,3.0,5.0,99,0.00,,,-99.99,0.000000,,2013-06-23 10:53:00,
2013-06-23 07:02:00,68.0,68.0,30.43,NNE,28,3.0,5.0,99,0.00,,,-99.99,0.000000,,2013-06-23 11:02:00,
2013-06-23 07:11:00,68.0,68.0,30.43,NNE,28,3.0,5.0,99,0.00,,,-99.99,0.000000,,2013-06-23 11:11:00,
2013-06-23 07:43:00,70.0,69.0,30.44,ESE,122,1.0,4.0,98,0.00,,,0.00,40.000000,,2013-06-23 11:43:00,
2013-06-23 07:53:00,70.0,69.0,30.44,ESE,122,1.0,4.0,98,0.00,,,0.00,40.000000,,2013-06-23 11:53:00,
2013-06-23 08:01:00,70.0,69.0,30.44,ESE,122,1.0,4.0,98,0.00,,,0.00,40.000000,,2013-06-23 12:01:00,
2013-06-23 08:12:00,70.0,69.0,30.44,ESE,122,1.0,4.0,98,0.00,,,0.00,40.000000,,2013-06-23 12:12:00,
2013-06-23 08:43:00,73.0,71.0,30.47,SSW,213,1.0,7.0,92,0.00,,,0.00,133.000000,,2013-06-23 12:43:00,
2013-06-23 08:53:00,73.0,71.0,30.47,SSW,213,1.0,7.0,92,0.00,,,0.00,133.000000,,2013-06-23 12:53:00,
2013-06-23 09:02:00,73.0,71.0,30.47,SSW,213,1.0,7.0,92,0.00,,,0.00,133.000000,,2013-06-23 13:02:00,
2013-06-23 09:11:00,73.0,71.0,30.47,SSW,213,1.0,7.0,92,0.00,,,0.00,133.000000,,2013-06-23 13:11:00,
2013-06-23 10:05:00,80.0,71.0,30.48,West,278,2.0,5.0,74,0.00,,,0.00,254.000000,,2013-06-23 14:05:00,
2013-06-23 10:11:00,80.0,71.0,30.48,West,278,2.0,5.0,74,0.00,,,0.00,254.000000,,2013-06-23 14:11:00,
2013-06-23 12:43:00,87.0,67.0,30.47,NNE,12,3.0,7.0,52,-99.99,,,0.00,872.000000,,2013-06-23 16:43:00,
2013-06-23 12:53:00,87.0,67.0,30.47,NNE,12,3.0,7.0,52,-99.99,,,0.00,872.000000,,2013-06-23 16:53:00,
2013-06-23 13:06:00,87.0,67.0,30.47,NNE,12,3.0,7.0,52,-99.99,,,0.00,872.000000,,2013-06-23 17:06:00,
2013-06-23 13:12:00,87.0,67.0,30.47,NNE,12,3.0,7.0,52,-99.99,,,0.00,872.000000,,2013-06-23 17:12:00,
2013-06-23 13:43:00,88.0,69.0,30.46,SSW,195,2.0,8.0,54,0.00,,,0.00,999.000000,,2013-06-23 17:43:00,
2013-06-23 13:53:00,88.0,69.0,30.46,SSW,195,2.0,8.0,54,0.00,,,0.00,999.000000,,2013-06-23 17:53:00,
2013-06-23 14:01:00,88.0,69.0,30.46,SSW,195,2.0,8.0,54,0.00,,,0.00,999.000000,,2013-06-23 18:01:00,
2013-06-23 14:12:00,88.0,69.0,30.46,SSW,195,2.0,8.0,54,0.00,,,0.00,999.000000,,2013-06-23 18:12:00,
2013-06-23 15:43:00,87.0,68.0,30.42,South,172,6.0,13.0,53,-99.99,,,0.00,1054.000000,,2013-06-23 19:43:00,
2013-06-23 15:53:00,87.0,68.0,30.42,South,172,6.0,13.0,53,-99.99,,,0.00,1054.000000,,2013-06-23 19:53:00,
2013-06-23 16:02:00,87.0,68.0,30.42,South,172,6.0,13.0,53,-99.99,,,0.00,1054.000000,,2013-06-23 20:02:00,
2013-06-23 16:12:00,87.0,68.0,30.42,South,172,6.0,13.0,53,-99.99,,,0.00,1054.000000,,2013-06-23 20:12:00,
2013-06-23 16:42:00,81.0,68.0,30.41,SSW,195,9.0,19.0,65,0.00,,,0.00,398.000000,,2013-06-23 20:42:00,
2013-06-23 16:53:00,81.0,68.0,30.41,SSW,195,9.0,19.0,65,0.00,,,0.00,398.000000,,2013-06-23 20:53:00,
2013-06-23 17:01:00,81.0,68.0,30.41,SSW,195,9.0,19.0,65,0.00,,,0.00,398.000000,,2013-06-23 21:01:00,
2013-06-23 17:12:00,81.0,68.0,30.41,SSW,195,9.0,19.0,65,0.00,,,0.00,398.000000,,2013-06-23 21:12:00,
2013-06-23 17:44:00,86.0,69.0,30.40,South,177,11.0,20.0,58,0.00,,,0.00,388.000000,,2013-06-23 21:44:00,
2013-06-23 17:52:00,86.0,69.0,30.40,South,177,11.0,20.0,58,0.00,,,0.00,388.000000,,2013-06-23 21:52:00,
2013-06-23 18:01:00,86.0,69.0,30.40,South,177,11.0,20.0,58,0.00,,,0.00,388.000000,,2013-06-23 22:01:00,
2013-06-23 18:12:00,86.0,69.0,30.40,South,177,11.0,20.0,58,0.00,,,0.00,388.000000,,2013-06-23 22:12:00,
2013-06-23 19:44:00,86.0,67.0,30.40,SE,139,6.0,12.0,54,-99.99,,,0.00,489.000000,,2013-06-23 23:44:00,
2013-06-23 19:52:00,86.0,67.0,30.40,SE,139,6.0,12.0,54,-99.99,,,0.00,489.000000,,2013-06-23 23:52:00,
2013-06-23 20:01:00,86.0,67.0,30.40,SE,139,6.0,12.0,54,-99.99,,,0.00,489.000000,,2013-06-24 00:01:00,
2013-06-23 20:11:00,86.0,67.0,30.40,SE,139,6.0,12.0,54,-99.99,,,0.00,489.000000,,2013-06-24 00:11:00,
2013-06-23 20:43:00,80.0,68.0,30.41,ENE,78,6.0,31.0,68,0.00,,,-99.99,219.000000,,2013-06-24 00:43:00,
2013-06-23 20:52:00,80.0,68.0,30.41,ENE,78,6.0,31.0,68,0.00,,,-99.99,219.000000,,2013-06-24 00:52:00,
2013-06-23 21:02:00,80.0,68.0,30.41,ENE,78,6.0,31.0,68,0.00,,,-99.99,219.000000,,2013-06-24 01:02:00,
2013-06-23 21:11:00,80.0,68.0,30.41,ENE,78,6.0,31.0,68,0.00,,,-99.99,219.000000,,2013-06-24 01:11:00,
2013-06-23 21:42:00,77.0,69.0,30.43,SSE,162,7.0,37.0,77,0.00,,,0.00,29.000000,,2013-06-24 01:42:00,
2013-06-23 21:53:00,77.0,69.0,30.43,SSE,162,7.0,37.0,77,0.00,,,0.00,29.000000,,2013-06-24 01:53:00,
2013-06-23 22:02:00,77.0,69.0,30.43,SSE,162,7.0,37.0,77,0.00,,,0.00,29.000000,,2013-06-24 02:02:00,
2013-06-23 22:11:00,77.0,69.0,30.43,SSE,162,7.0,37.0,77,0.00,,,0.00,29.000000,,2013-06-24 02:11:00,
2013-06-23 22:42:00,73.0,68.0,30.43,South,177,4.0,11.0,83,0.00,,,0.00,0.000000,,2013-06-24 02:42:00,
2013-06-23 22:53:00,73.0,68.0,30.43,South,177,4.0,11.0,83,0.00,,,0.00,0.000000,,2013-06-24 02:53:00,
2013-06-23 23:01:00,73.0,68.0,30.43,South,177,4.0,11.0,83,0.00,,,0.00,0.000000,,2013-06-24 03:01:00,
2013-06-23 23:11:00,73.0,68.0,30.43,South,177,4.0,11.0,83,0.00,,,0.00,0.000000,,2013-06-24 03:11:00,
2013-06-23 23:43:00,74.0,70.0,30.45,South,175,4.0,9.0,87,0.00,,,0.00,0.000000,,2013-06-24 03:43:00,
2013-06-23 23:53:00,74.0,70.0,30.45,South,175,4.0,9.0,87,0.00,,,0.00,0.000000,,2013-06-24 03:53:00,